Time;durP1;ratioP1;P1;durP2;ratioP2;P2;SDS_P1;SDS_P2;PMS_P1;PMS_P2;Temp;Humidity;BMP_temperature;BMP_pressure;BME280_temperature;BME280_humidity;BME280_pressure;Samples;Min_cycle;Max_cycle;Signal;HPM_P1;HPM_P2
2021/11/20 00:00:04;;;;;;;;;;;;;;;;;;173605;28;1086;-54
2021/11/20 00:00:11;;;;;;;;;;;;;;;;;;174071;28;992;-52
2021/11/20 00:00:17;;;;;;;;;;;;;;;;;;173493;28;1398;-53
2021/11/20 00:00:29;;;;;;;;;;;;;;;;;;173581;28;980;-52
2021/11/20 00:00:35;;;;;;;;;;;;;;;;;;173535;28;1003;-51
2021/11/20 00:00:40;;;;;;;;;;;;;;;;;;173809;28;1145;-52
2021/11/20 00:00:46;;;;;;;;;;;;;;;;;;174124;28;1104;-53
2021/11/20 00:00:52;;;;;;;;;;;;;;;;;;174173;28;1125;-53
2021/11/20 00:00:59;;;;;;;;;;;;;;;;;;174137;28;967;-52
2021/11/20 00:01:06;;;;;;;;;;;;;;;;;;173525;28;1168;-51
2021/11/20 00:01:22;;;;;;;;;;;;;;;;;;173469;28;888;-54
2021/11/20 00:01:27;;;;;;;;;;;;;;;;;;173863;28;1010;-53
2021/11/20 00:01:33;;;;;;;;;;;;;;;;;;174059;28;876;-56
2021/11/20 00:01:39;;;;;;;;;;;;;;;;;;173770;28;1156;-51
2021/11/20 00:01:44;;;;;;;;;;;;;;;;;;173679;28;1053;-52
2021/11/20 00:01:49;;;;;;;;;;;;;;;;;;174162;28;1219;-53
2021/11/20 00:01:55;;;;;;;;;;;;;;;;;;174124;28;1298;-52
2021/11/20 00:02:00;;;;;;;;;;;;;;;;;;173483;28;1169;-52
2021/11/20 00:02:06;;;;;;;;;;;;;;;;;;174129;28;846;-54
2021/11/20 00:02:14;;;;;;;;;;;;;;;;;;174177;28;896;-53
2021/11/20 00:02:22;;;;;;;;;;;;;;;;;;173416;28;849;-52
2021/11/20 00:02:28;;;;;;;;;;;;;;;;;;173922;28;1065;-53
2021/11/20 00:02:34;;;;;;;;;;;;;;;;;;174101;28;1275;-51
2021/11/20 00:02:39;;;;;;;;;;;;;;;;;;173450;28;1224;-53
2021/11/20 00:02:44;;;;;;;;;;;;;;;;;;173504;28;1020;-54
2021/11/20 00:02:50;;;;;;;;;;;;;;;;;;173803;28;1247;-52
2021/11/20 00:02:55;;;;;;;;;;;;;;;;;;174167;28;903;-53
2021/11/20 00:03:00;;;;;;;;;;;;;;;;;;173811;28;1184;-52
2021/11/20 00:03:05;;;;;;;;;;;;;;;;;;173382;28;1032;-53
2021/11/20 00:03:10;;;;;;;;;;;;;;;;;;173115;28;1709;-53
2021/11/20 00:03:16;;;;;;;;;;;;;;;;;;173504;28;1003;-52
2021/11/20 00:03:21;;;;;;;;;;;;;;;;;;173267;28;800;-55
2021/11/20 00:03:26;;;;;;;;;;;;;;;;;;173894;28;1156;-51
2021/11/20 00:03:32;;;;;;;;;;;;;;;;;;174026;28;805;-53
2021/11/20 00:03:39;;;;;;;;;;;;;;;;;;173431;28;1152;-53
2021/11/20 00:03:45;;;;;;;;;;;;;;;;;;173457;28;921;-51
2021/11/20 00:03:50;;;;;;;;;;;;;;;;;;174047;28;1248;-52
2021/11/20 00:03:55;;;;;;;;;;;;;;;;;;174717;28;825;-54
2021/11/20 00:04:00;;;;;;;;;;;;;;;;;;174590;28;1301;-53
2021/11/20 00:04:06;;;;;;;;;;;;;;;;;;174801;28;939;-53
2021/11/20 00:04:11;;;;;;;;;;;;;;;;;;174482;28;1152;-55
2021/11/20 00:04:16;;;;;;;;;;;;;;;;;;173647;28;809;-53
2021/11/20 00:04:21;;;;;;;;;;;;;;;;;;173445;28;1140;-54
2021/11/20 00:04:27;;;;;;;;;;;;;;;;;;174030;28;864;-54
2021/11/20 00:04:32;;;;;;;;;;;;;;;;;;173975;28;1366;-53
2021/11/20 00:04:38;;;;;;;;;;;;;;;;;;173296;28;1274;-52
2021/11/20 00:04:43;;;;;;;;;;;;;;;;;;173480;28;1101;-55
2021/11/20 00:04:48;;;;;;;;;;;;;;;;;;174051;28;1220;-51
2021/11/20 00:04:54;;;;;;;;;;;;;;;;;;174193;28;892;-52
2021/11/20 00:05:01;;;;;;;;;;;;;;;;;;173915;28;1171;-52
2021/11/20 00:05:06;;;;;;;;;;;;;;;;;;173973;28;881;-53
2021/11/20 00:05:12;;;;;;;;;;;;;;;;;;174011;28;1132;-55
2021/11/20 00:05:19;;;;;;;;;;;;;;;;;;174000;28;999;-53
2021/11/20 00:05:25;;;;;;;;;;;;;;;;;;174109;28;1160;-52
2021/11/20 00:05:33;;;;;;;;;;;;;;;;;;174023;28;1007;-52
2021/11/20 00:05:39;;;;;;;;;;;;;;;;;;173404;28;802;-51
2021/11/20 00:05:45;;;;;;;;;;;;;;;;;;173626;28;1105;-53
2021/11/20 00:05:51;;;;;;;;;;;;;;;;;;174197;28;809;-54
2021/11/20 00:05:56;;;;;;;;;;;;;;;;;;174247;28;1152;-52
2021/11/20 00:06:01;;;;;;;;;;;;;;;;;;174114;28;841;-54
2021/11/20 00:06:06;;;;;;;;;;;;;;;;;;174101;28;1054;-52
2021/11/20 00:06:12;;;;;;;;;;;;;;;;;;173542;28;1295;-51
2021/11/20 00:06:19;;;;;;;;;;;;;;;;;;173425;28;868;-53
2021/11/20 00:06:26;;;;;;;;;;;;;;;;;;173498;28;801;-52
2021/11/20 00:06:33;;;;;;;;;;;;;;;;;;173461;28;1024;-54
2021/11/20 00:06:40;;;;;;;;;;;;;;;;;;174072;28;840;-53
2021/11/20 00:06:46;;;;;;;;;;;;;;;;;;174010;28;1172;-55
2021/11/20 00:06:52;;;;;;;;;;;;;;;;;;174182;28;923;-52
2021/11/20 00:06:59;;;;;;;;;;;;;;;;;;173982;28;1157;-54
2021/11/20 00:07:05;;;;;;;;;;;;;;;;;;174020;28;850;-52
2021/11/20 00:07:10;;;;;;;;;;;;;;;;;;173470;28;1176;-52
2021/11/20 00:07:17;;;;;;;;;;;;;;;;;;173531;28;955;-53
2021/11/20 00:07:22;;;;;;;;;;;;;;;;;;174176;28;917;-51
2021/11/20 00:07:28;;;;;;;;;;;;;;;;;;174081;28;892;-54
2021/11/20 00:07:33;;;;;;;;;;;;;;;;;;174015;28;1286;-52
2021/11/20 00:07:38;;;;;;;;;;;;;;;;;;174073;28;1000;-53
2021/11/20 00:07:43;;;;;;;;;;;;;;;;;;173680;28;1215;-54
2021/11/20 00:07:48;;;;;;;;;;;;;;;;;;173492;28;805;-54
2021/11/20 00:07:54;;;;;;;;;;;;;;;;;;171465;28;1345;-54
2021/11/20 00:08:00;;;;;;;;;;;;;;;;;;173777;28;955;-53
2021/11/20 00:08:06;;;;;;;;;;;;;;;;;;173895;28;1140;-53
2021/11/20 00:08:11;;;;;;;;;;;;;;;;;;173437;28;910;-51
2021/11/20 00:08:16;;;;;;;;;;;;;;;;;;173406;28;1007;-53
2021/11/20 00:08:22;;;;;;;;;;;;;;;;;;174127;28;988;-53
2021/11/20 00:08:27;;;;;;;;;;;;;;;;;;173997;28;802;-51
2021/11/20 00:08:32;;;;;;;;;;;;;;;;;;174099;28;1148;-51
2021/11/20 00:08:37;;;;;;;;;;;;;;;;;;173949;28;929;-54
2021/11/20 00:08:43;;;;;;;;;;;;;;;;;;173602;28;1125;-56
2021/11/20 00:08:48;;;;;;;;;;;;;;;;;;173515;28;909;-52
2021/11/20 00:08:53;;;;;;;;;;;;;;;;;;173605;28;1125;-54
2021/11/20 00:08:58;;;;;;;;;;;;;;;;;;174089;28;1015;-52
2021/11/20 00:09:04;;;;;;;;;;;;;;;;;;174096;28;1081;-52
2021/11/20 00:09:11;;;;;;;;;;;;;;;;;;174150;28;936;-53
2021/11/20 00:09:18;;;;;;;;;;;;;;;;;;173739;28;1160;-53
2021/11/20 00:09:23;;;;;;;;;;;;;;;;;;173487;28;984;-53
2021/11/20 00:09:28;;;;;;;;;;;;;;;;;;173573;28;1109;-52
2021/11/20 00:09:34;;;;;;;;;;;;;;;;;;174097;28;983;-53
2021/11/20 00:09:39;;;;;;;;;;;;;;;;;;173959;28;1144;-53
2021/11/20 00:09:44;;;;;;;;;;;;;;;;;;173542;28;1058;-53
2021/11/20 00:09:50;;;;;;;;;;;;;;;;;;174190;28;864;-53
2021/11/20 00:09:55;;;;;;;;;;;;;;;;;;174206;28;1263;-52
2021/11/20 00:10:00;;;;;;;;;;;;;;;;;;174044;28;983;-54
2021/11/20 00:10:05;;;;;;;;;;;;;;;;;;174097;28;1085;-52
2021/11/20 00:10:11;;;;;;;;;;;;;;;;;;174020;28;967;-51
2021/11/20 00:10:17;;;;;;;;;;;;;;;;;;173658;28;1144;-56
2021/11/20 00:10:23;;;;;;;;;;;;;;;;;;172748;28;1038;-52
2021/11/20 00:10:29;;;;;;;;;;;;;;;;;;173076;28;1105;-52
2021/11/20 00:10:35;;;;;;;;;;;;;;;;;;173374;28;1004;-53
2021/11/20 00:10:41;;;;;;;;;;;;;;;;;;172174;28;1063;-53
2021/11/20 00:10:47;;;;;;;;;;;;;;;;;;172733;28;1051;-54
2021/11/20 00:10:54;;;;;;;;;;;;;;;;;;173450;28;1149;-52
2021/11/20 00:11:00;;;;;;;;;;;;;;;;;;173310;28;806;-54
2021/11/20 00:11:06;;;;;;;;;;;;;;;;;;173339;28;1312;-54
2021/11/20 00:11:12;;;;;;;;;;;;;;;;;;173480;28;802;-53
2021/11/20 00:11:18;;;;;;;;;;;;;;;;;;172697;28;1377;-54
2021/11/20 00:11:24;;;;;;;;;;;;;;;;;;172802;28;806;-54
2021/11/20 00:11:30;;;;;;;;;;;;;;;;;;173347;28;1398;-53
2021/11/20 00:11:35;;;;;;;;;;;;;;;;;;173465;28;805;-52
2021/11/20 00:11:41;;;;;;;;;;;;;;;;;;172735;28;1136;-52
2021/11/20 00:11:46;;;;;;;;;;;;;;;;;;172803;28;888;-51
2021/11/20 00:11:52;;;;;;;;;;;;;;;;;;173291;28;1260;-53
2021/11/20 00:12:00;;;;;;;;;;;;;;;;;;173389;28;983;-54
2021/11/20 00:12:07;;;;;;;;;;;;;;;;;;172110;28;845;-52
2021/11/20 00:12:14;;;;;;;;;;;;;;;;;;172132;28;1161;-54
2021/11/20 00:12:23;;;;;;;;;;;;;;;;;;173370;28;892;-53
2021/11/20 00:12:29;;;;;;;;;;;;;;;;;;172646;28;869;-54
2021/11/20 00:12:35;;;;;;;;;;;;;;;;;;172701;28;774;-51
2021/11/20 00:12:43;;;;;;;;;;;;;;;;;;174366;28;1326;-53
2021/11/20 00:12:48;;;;;;;;;;;;;;;;;;174613;28;1171;-53
2021/11/20 00:12:53;;;;;;;;;;;;;;;;;;174037;28;1396;-52
2021/11/20 00:12:58;;;;;;;;;;;;;;;;;;174072;28;873;-51
2021/11/20 00:13:07;;;;;;;;;;;;;;;;;;174719;28;1160;-52
2021/11/20 00:13:13;;;;;;;;;;;;;;;;;;174494;28;1208;-52
2021/11/20 00:13:18;;;;;;;;;;;;;;;;;;174071;28;773;-53
2021/11/20 00:13:23;;;;;;;;;;;;;;;;;;174138;28;1188;-54
2021/11/20 00:13:28;;;;;;;;;;;;;;;;;;174697;28;968;-53
2021/11/20 00:13:34;;;;;;;;;;;;;;;;;;174854;28;851;-53
2021/11/20 00:13:41;;;;;;;;;;;;;;;;;;173332;28;1349;-52
2021/11/20 00:13:46;;;;;;;;;;;;;;;;;;173389;28;1132;-52
2021/11/20 00:13:51;;;;;;;;;;;;;;;;;;174175;28;805;-51
2021/11/20 00:13:57;;;;;;;;;;;;;;;;;;174063;28;829;-52
2021/11/20 00:14:02;;;;;;;;;;;;;;;;;;173817;28;1215;-56
2021/11/20 00:14:10;;;;;;;;;;;;;;;;;;174251;28;812;-52
2021/11/20 00:14:15;;;;;;;;;;;;;;;;;;173441;28;877;-52
2021/11/20 00:14:21;;;;;;;;;;;;;;;;;;173348;28;809;-53
2021/11/20 00:14:26;;;;;;;;;;;;;;;;;;173920;28;1153;-53
2021/11/20 00:14:31;;;;;;;;;;;;;;;;;;174126;28;1040;-52
2021/11/20 00:14:36;;;;;;;;;;;;;;;;;;173415;28;1148;-58
2021/11/20 00:14:41;;;;;;;;;;;;;;;;;;173341;28;897;-57
2021/11/20 00:14:47;;;;;;;;;;;;;;;;;;173641;28;982;-53
2021/11/20 00:14:52;;;;;;;;;;;;;;;;;;174131;28;885;-54
2021/11/20 00:14:58;;;;;;;;;;;;;;;;;;173856;28;1203;-52
2021/11/20 00:15:04;;;;;;;;;;;;;;;;;;173363;28;838;-51
2021/11/20 00:15:12;;;;;;;;;;;;;;;;;;173547;28;1086;-54
2021/11/20 00:15:19;;;;;;;;;;;;;;;;;;173737;28;1585;-54
2021/11/20 00:15:25;;;;;;;;;;;;;;;;;;173929;28;1153;-53
2021/11/20 00:15:31;;;;;;;;;;;;;;;;;;174069;28;1019;-52
2021/11/20 00:15:39;;;;;;;;;;;;;;;;;;173379;28;905;-53
2021/11/20 00:15:46;;;;;;;;;;;;;;;;;;173516;28;1173;-53
2021/11/20 00:15:52;;;;;;;;;;;;;;;;;;174143;28;1007;-52
2021/11/20 00:15:58;;;;;;;;;;;;;;;;;;173634;28;1236;-51
2021/11/20 00:16:04;;;;;;;;;;;;;;;;;;174188;28;782;-54
2021/11/20 00:16:10;;;;;;;;;;;;;;;;;;173746;28;1212;-52
2021/11/20 00:16:15;;;;;;;;;;;;;;;;;;173487;28;1008;-52
2021/11/20 00:16:22;;;;;;;;;;;;;;;;;;173541;28;1145;-52
2021/11/20 00:16:27;;;;;;;;;;;;;;;;;;174063;28;809;-53
2021/11/20 00:16:32;;;;;;;;;;;;;;;;;;173662;28;1281;-53
2021/11/20 00:16:39;;;;;;;;;;;;;;;;;;173388;28;988;-54
2021/11/20 00:16:44;;;;;;;;;;;;;;;;;;171118;28;1965;-56
2021/11/20 00:16:51;;;;;;;;;;;;;;;;;;172637;28;1862;-55
2021/11/20 00:16:56;;;;;;;;;;;;;;;;;;172853;28;1133;-55
2021/11/20 00:17:01;;;;;;;;;;;;;;;;;;173489;28;846;-54
2021/11/20 00:17:07;;;;;;;;;;;;;;;;;;173242;28;1089;-52
2021/11/20 00:17:12;;;;;;;;;;;;;;;;;;172812;28;777;-56
2021/11/20 00:17:17;;;;;;;;;;;;;;;;;;172652;28;801;-52
2021/11/20 00:17:23;;;;;;;;;;;;;;;;;;171487;28;1315;-54
2021/11/20 00:17:28;;;;;;;;;;;;;;;;;;172706;28;837;-55
2021/11/20 00:17:33;;;;;;;;;;;;;;;;;;173028;28;1189;-53
2021/11/20 00:17:38;;;;;;;;;;;;;;;;;;173375;28;817;-56
2021/11/20 00:17:44;;;;;;;;;;;;;;;;;;173067;28;1176;-52
2021/11/20 00:17:49;;;;;;;;;;;;;;;;;;172834;28;877;-53
2021/11/20 00:17:54;;;;;;;;;;;;;;;;;;172793;28;1292;-54
2021/11/20 00:18:00;;;;;;;;;;;;;;;;;;173315;28;964;-52
2021/11/20 00:18:05;;;;;;;;;;;;;;;;;;173335;28;1101;-54
2021/11/20 00:18:10;;;;;;;;;;;;;;;;;;174151;28;912;-53
2021/11/20 00:18:16;;;;;;;;;;;;;;;;;;174142;28;862;-52
2021/11/20 00:18:21;;;;;;;;;;;;;;;;;;173343;28;1124;-52
2021/11/20 00:18:27;;;;;;;;;;;;;;;;;;173276;28;897;-54
2021/11/20 00:18:32;;;;;;;;;;;;;;;;;;173792;28;1224;-56
2021/11/20 00:18:37;;;;;;;;;;;;;;;;;;174049;28;833;-53
2021/11/20 00:18:43;;;;;;;;;;;;;;;;;;172879;28;1129;-50
2021/11/20 00:18:48;;;;;;;;;;;;;;;;;;172766;28;809;-53
2021/11/20 00:18:54;;;;;;;;;;;;;;;;;;173196;28;1082;-54
2021/11/20 00:18:59;;;;;;;;;;;;;;;;;;174033;28;884;-53
2021/11/20 00:19:04;;;;;;;;;;;;;;;;;;173811;28;1152;-51
2021/11/20 00:19:10;;;;;;;;;;;;;;;;;;173301;28;901;-53
2021/11/20 00:19:15;;;;;;;;;;;;;;;;;;173443;28;988;-53
2021/11/20 00:19:20;;;;;;;;;;;;;;;;;;173923;28;1200;-53
2021/11/20 00:19:26;;;;;;;;;;;;;;;;;;173949;28;809;-53
2021/11/20 00:19:31;;;;;;;;;;;;;;;;;;173467;28;1175;-52
2021/11/20 00:19:36;;;;;;;;;;;;;;;;;;172689;28;846;-58
2021/11/20 00:19:42;;;;;;;;;;;;;;;;;;173120;28;1153;-52
2021/11/20 00:19:48;;;;;;;;;;;;;;;;;;172796;28;798;-52
2021/11/20 00:19:53;;;;;;;;;;;;;;;;;;173017;28;1134;-51
2021/11/20 00:19:58;;;;;;;;;;;;;;;;;;173418;28;991;-54
2021/11/20 00:20:04;;;;;;;;;;;;;;;;;;173416;28;1179;-52
2021/11/20 00:20:11;;;;;;;;;;;;;;;;;;173531;28;881;-54
2021/11/20 00:20:17;;;;;;;;;;;;;;;;;;173153;28;1164;-57
2021/11/20 00:20:22;;;;;;;;;;;;;;;;;;172742;28;941;-55
2021/11/20 00:20:27;;;;;;;;;;;;;;;;;;172796;28;1129;-53
2021/11/20 00:20:33;;;;;;;;;;;;;;;;;;173383;28;999;-53
2021/11/20 00:20:45;;;;;;;;;;;;;;;;;;173262;28;1073;-54
2021/11/20 00:20:53;;;;;;;;;;;;;;;;;;173447;28;1133;-55
2021/11/20 00:20:59;;;;;;;;;;;;;;;;;;173901;28;837;-55
2021/11/20 00:21:06;;;;;;;;;;;;;;;;;;173559;28;1153;-52
2021/11/20 00:21:13;;;;;;;;;;;;;;;;;;173453;28;830;-53
2021/11/20 00:21:20;;;;;;;;;;;;;;;;;;173915;28;833;-55
2021/11/20 00:21:27;;;;;;;;;;;;;;;;;;174014;28;1121;-53
2021/11/20 00:21:37;;;;;;;;;;;;;;;;;;173969;28;936;-53
2021/11/20 00:21:44;;;;;;;;;;;;;;;;;;173533;28;821;-53
2021/11/20 00:21:57;;;;;;;;;;;;;;;;;;173525;28;1121;-54
2021/11/20 00:22:15;;;;;;;;;;;;;;;;;;173610;28;1113;-53
2021/11/20 00:22:25;;;;;;;;;;;;;;;;;;173421;28;892;-55
2021/11/20 00:22:32;;;;;;;;;;;;;;;;;;173378;28;861;-54
2021/11/20 00:22:38;;;;;;;;;;;;;;;;;;173575;28;1162;-53
2021/11/20 00:22:44;;;;;;;;;;;;;;;;;;174041;28;993;-51
2021/11/20 00:22:49;;;;;;;;;;;;;;;;;;174165;28;1153;-52
2021/11/20 00:22:55;;;;;;;;;;;;;;;;;;174229;28;876;-54
2021/11/20 00:23:00;;;;;;;;;;;;;;;;;;173991;28;1125;-53
2021/11/20 00:23:05;;;;;;;;;;;;;;;;;;173528;28;802;-52
2021/11/20 00:23:11;;;;;;;;;;;;;;;;;;173522;28;854;-53
2021/11/20 00:23:17;;;;;;;;;;;;;;;;;;174175;28;667;-52
2021/11/20 00:23:24;;;;;;;;;;;;;;;;;;174113;28;1051;-52
2021/11/20 00:23:34;;;;;;;;;;;;;;;;;;173323;28;864;-52
2021/11/20 00:23:41;;;;;;;;;;;;;;;;;;173861;28;1195;-53
2021/11/20 00:23:47;;;;;;;;;;;;;;;;;;174043;28;1061;-53
2021/11/20 00:23:54;;;;;;;;;;;;;;;;;;173448;28;900;-53
2021/11/20 00:24:00;;;;;;;;;;;;;;;;;;173604;28;1331;-51
2021/11/20 00:24:13;;;;;;;;;;;;;;;;;;174173;28;802;-52
2021/11/20 00:24:23;;;;;;;;;;;;;;;;;;173366;28;850;-55
2021/11/20 00:24:45;;;;;;;;;;;;;;;;;;172512;28;1641;-55
2021/11/20 00:24:52;;;;;;;;;;;;;;;;;;172668;28;940;-53
2021/11/20 00:24:58;;;;;;;;;;;;;;;;;;172668;28;1145;-54
2021/11/20 00:25:21;;;;;;;;;;;;;;;;;;173983;28;840;-53
2021/11/20 00:25:31;;;;;;;;;;;;;;;;;;172593;28;1956;-54
2021/11/20 00:25:49;;;;;;;;;;;;;;;;;;173920;28;1220;-52
2021/11/20 00:25:56;;;;;;;;;;;;;;;;;;174126;28;852;-52
2021/11/20 00:26:01;;;;;;;;;;;;;;;;;;172930;28;1440;-52
2021/11/20 00:26:07;;;;;;;;;;;;;;;;;;174084;28;845;-55
2021/11/20 00:26:13;;;;;;;;;;;;;;;;;;173441;28;766;-54
2021/11/20 00:26:19;;;;;;;;;;;;;;;;;;173342;28;936;-55
2021/11/20 00:26:32;;;;;;;;;;;;;;;;;;173510;28;904;-54
2021/11/20 00:26:37;;;;;;;;;;;;;;;;;;174080;28;825;-54
2021/11/20 00:26:42;;;;;;;;;;;;;;;;;;174298;28;477;-53
2021/11/20 00:26:47;;;;;;;;;;;;;;;;;;174067;28;1041;-52
2021/11/20 00:26:53;;;;;;;;;;;;;;;;;;174221;28;773;-53
2021/11/20 00:27:00;;;;;;;;;;;;;;;;;;173597;28;1208;-53
2021/11/20 00:27:06;;;;;;;;;;;;;;;;;;173428;28;866;-52
2021/11/20 00:27:16;;;;;;;;;;;;;;;;;;173560;28;849;-51
2021/11/20 00:27:23;;;;;;;;;;;;;;;;;;173905;28;1165;-52
2021/11/20 00:27:33;;;;;;;;;;;;;;;;;;174077;28;850;-54
2021/11/20 00:27:38;;;;;;;;;;;;;;;;;;173426;28;848;-53
2021/11/20 00:27:43;;;;;;;;;;;;;;;;;;173546;28;1357;-53
2021/11/20 00:27:49;;;;;;;;;;;;;;;;;;174176;28;925;-54
2021/11/20 00:27:55;;;;;;;;;;;;;;;;;;174064;28;1249;-54
2021/11/20 00:28:00;;;;;;;;;;;;;;;;;;174116;28;971;-52
2021/11/20 00:28:05;;;;;;;;;;;;;;;;;;174030;28;1144;-53
2021/11/20 00:28:17;;;;;;;;;;;;;;;;;;173368;28;794;-56
2021/11/20 00:28:31;;;;;;;;;;;;;;;;;;174089;28;1120;-53
2021/11/20 00:28:42;;;;;;;;;;;;;;;;;;174151;28;982;-52
2021/11/20 00:29:27;;;;;;;;;;;;;;;;;;174062;28;1152;-54
2021/11/20 00:29:39;;;;;;;;;;;;;;;;;;172892;28;1380;-52
2021/11/20 00:29:58;;;;;;;;;;;;;;;;;;173990;28;1267;-54
2021/11/20 00:30:15;;;;;;;;;;;;;;;;;;173960;28;1017;-53
2021/11/20 00:30:23;;;;;;;;;;;;;;;;;;172720;28;1630;-54
2021/11/20 00:30:39;;;;;;;;;;;;;;;;;;172774;28;1046;-55
2021/11/20 00:30:55;;;;;;;;;;;;;;;;;;172655;28;944;-54
2021/11/20 00:31:06;;;;;;;;;;;;;;;;;;172560;28;856;-55
2021/11/20 00:31:14;;;;;;;;;;;;;;;;;;173251;28;920;-55
2021/11/20 00:31:19;;;;;;;;;;;;;;;;;;173294;28;999;-52
2021/11/20 00:31:25;;;;;;;;;;;;;;;;;;173410;28;936;-55
2021/11/20 00:31:32;;;;;;;;;;;;;;;;;;174032;28;912;-55
2021/11/20 00:31:38;;;;;;;;;;;;;;;;;;174031;28;932;-52
2021/11/20 00:31:52;;;;;;;;;;;;;;;;;;172868;28;1038;-52
2021/11/20 00:31:58;;;;;;;;;;;;;;;;;;172720;28;778;-51
2021/11/20 00:32:03;;;;;;;;;;;;;;;;;;173059;28;1130;-53
2021/11/20 00:32:11;;;;;;;;;;;;;;;;;;172695;28;999;-53
2021/11/20 00:32:17;;;;;;;;;;;;;;;;;;173199;28;1216;-52
2021/11/20 00:32:26;;;;;;;;;;;;;;;;;;172773;28;1032;-53
2021/11/20 00:32:34;;;;;;;;;;;;;;;;;;172040;28;885;-54
2021/11/20 00:32:43;;;;;;;;;;;;;;;;;;172369;28;1174;-54
2021/11/20 00:32:49;;;;;;;;;;;;;;;;;;172074;28;1158;-52
2021/11/20 00:33:05;;;;;;;;;;;;;;;;;;171476;28;814;-54
2021/11/20 00:33:10;;;;;;;;;;;;;;;;;;171474;28;980;-52
2021/11/20 00:33:15;;;;;;;;;;;;;;;;;;171927;28;1319;-54
2021/11/20 00:33:21;;;;;;;;;;;;;;;;;;171890;28;1632;-51
2021/11/20 00:33:28;;;;;;;;;;;;;;;;;;172417;28;1213;-51
2021/11/20 00:33:34;;;;;;;;;;;;;;;;;;171999;28;814;-56
2021/11/20 00:33:39;;;;;;;;;;;;;;;;;;171201;28;1194;-54
2021/11/20 00:33:44;;;;;;;;;;;;;;;;;;171412;28;1051;-51
2021/11/20 00:33:49;;;;;;;;;;;;;;;;;;171323;28;1201;-52
2021/11/20 00:33:55;;;;;;;;;;;;;;;;;;171439;28;882;-52
2021/11/20 00:34:00;;;;;;;;;;;;;;;;;;171249;28;1197;-52
2021/11/20 00:34:09;;;;;;;;;;;;;;;;;;171363;28;997;-54
2021/11/20 00:34:15;;;;;;;;;;;;;;;;;;171410;28;1230;-52
2021/11/20 00:34:22;;;;;;;;;;;;;;;;;;171312;28;980;-53
2021/11/20 00:34:28;;;;;;;;;;;;;;;;;;171276;28;620;-54
2021/11/20 00:34:33;;;;;;;;;;;;;;;;;;170638;28;779;-56
2021/11/20 00:34:38;;;;;;;;;;;;;;;;;;170640;29;1138;-52
2021/11/20 00:34:44;;;;;;;;;;;;;;;;;;170723;29;1033;-50
2021/11/20 00:34:49;;;;;;;;;;;;;;;;;;170591;29;1100;-53
2021/11/20 00:34:58;;;;;;;;;;;;;;;;;;171115;28;866;-53
2021/11/20 00:35:04;;;;;;;;;;;;;;;;;;170444;29;997;-54
2021/11/20 00:35:10;;;;;;;;;;;;;;;;;;170639;28;1106;-54
2021/11/20 00:35:17;;;;;;;;;;;;;;;;;;171371;28;960;-54
2021/11/20 00:35:23;;;;;;;;;;;;;;;;;;172006;28;1178;-53
2021/11/20 00:35:39;;;;;;;;;;;;;;;;;;171967;28;984;-54
2021/11/20 00:35:45;;;;;;;;;;;;;;;;;;173443;28;812;-53
2021/11/20 00:35:51;;;;;;;;;;;;;;;;;;173297;28;987;-53
2021/11/20 00:35:57;;;;;;;;;;;;;;;;;;173412;28;1355;-53
2021/11/20 00:36:02;;;;;;;;;;;;;;;;;;174135;28;1313;-54
2021/11/20 00:36:08;;;;;;;;;;;;;;;;;;173970;28;785;-53
2021/11/20 00:36:13;;;;;;;;;;;;;;;;;;172734;28;2018;-53
2021/11/20 00:36:19;;;;;;;;;;;;;;;;;;173963;28;845;-53
2021/11/20 00:36:24;;;;;;;;;;;;;;;;;;173852;28;1322;-55
2021/11/20 00:36:30;;;;;;;;;;;;;;;;;;173970;28;864;-51
2021/11/20 00:36:35;;;;;;;;;;;;;;;;;;173398;28;1132;-54
2021/11/20 00:36:40;;;;;;;;;;;;;;;;;;173485;28;801;-53
2021/11/20 00:36:45;;;;;;;;;;;;;;;;;;173811;28;1070;-53
2021/11/20 00:36:50;;;;;;;;;;;;;;;;;;174206;28;686;-54
2021/11/20 00:36:56;;;;;;;;;;;;;;;;;;174069;28;1200;-52
2021/11/20 00:37:01;;;;;;;;;;;;;;;;;;173373;28;817;-54
2021/11/20 00:37:06;;;;;;;;;;;;;;;;;;173520;28;777;-51
2021/11/20 00:37:12;;;;;;;;;;;;;;;;;;174089;28;1279;-52
2021/11/20 00:37:17;;;;;;;;;;;;;;;;;;174081;28;895;-53
2021/11/20 00:37:22;;;;;;;;;;;;;;;;;;173704;28;1013;-52
2021/11/20 00:37:27;;;;;;;;;;;;;;;;;;173400;28;881;-55
2021/11/20 00:37:33;;;;;;;;;;;;;;;;;;173608;28;1152;-53
2021/11/20 00:37:38;;;;;;;;;;;;;;;;;;174015;28;837;-53
2021/11/20 00:37:43;;;;;;;;;;;;;;;;;;174028;28;1215;-53
2021/11/20 00:37:49;;;;;;;;;;;;;;;;;;174163;28;983;-53
2021/11/20 00:37:54;;;;;;;;;;;;;;;;;;173971;28;1229;-54
2021/11/20 00:37:59;;;;;;;;;;;;;;;;;;173376;28;1003;-54
2021/11/20 00:38:04;;;;;;;;;;;;;;;;;;173422;28;845;-54
2021/11/20 00:38:10;;;;;;;;;;;;;;;;;;173980;28;1177;-53
2021/11/20 00:38:15;;;;;;;;;;;;;;;;;;174149;28;494;-54
2021/11/20 00:38:20;;;;;;;;;;;;;;;;;;173660;28;1073;-52
2021/11/20 00:38:26;;;;;;;;;;;;;;;;;;173339;28;789;-55
2021/11/20 00:38:31;;;;;;;;;;;;;;;;;;173623;28;1172;-56
2021/11/20 00:38:36;;;;;;;;;;;;;;;;;;174122;28;800;-53
2021/11/20 00:38:42;;;;;;;;;;;;;;;;;;172677;28;1424;-53
2021/11/20 00:38:48;;;;;;;;;;;;;;;;;;173083;28;1446;-53
2021/11/20 00:38:53;;;;;;;;;;;;;;;;;;173793;28;843;-54
2021/11/20 00:38:58;;;;;;;;;;;;;;;;;;173950;28;785;-52
2021/11/20 00:39:04;;;;;;;;;;;;;;;;;;174023;28;916;-54
2021/11/20 00:39:10;;;;;;;;;;;;;;;;;;173384;28;1057;-53
2021/11/20 00:39:16;;;;;;;;;;;;;;;;;;173464;28;848;-55
2021/11/20 00:39:22;;;;;;;;;;;;;;;;;;174160;28;833;-54
2021/11/20 00:39:28;;;;;;;;;;;;;;;;;;173330;28;781;-54
2021/11/20 00:39:34;;;;;;;;;;;;;;;;;;173313;28;806;-53
2021/11/20 00:39:39;;;;;;;;;;;;;;;;;;173367;28;834;-51
2021/11/20 00:39:44;;;;;;;;;;;;;;;;;;173871;28;1185;-52
2021/11/20 00:39:50;;;;;;;;;;;;;;;;;;174181;28;801;-55
2021/11/20 00:39:55;;;;;;;;;;;;;;;;;;174138;28;1148;-54
2021/11/20 00:40:01;;;;;;;;;;;;;;;;;;174073;28;947;-53
2021/11/20 00:40:07;;;;;;;;;;;;;;;;;;173615;28;1204;-53
2021/11/20 00:40:14;;;;;;;;;;;;;;;;;;173407;28;1193;-51
2021/11/20 00:40:23;;;;;;;;;;;;;;;;;;173809;28;1208;-56
2021/11/20 00:40:34;;;;;;;;;;;;;;;;;;173713;28;1124;-54
2021/11/20 00:40:59;;;;;;;;;;;;;;;;;;172513;28;1105;-55
2021/11/20 00:41:07;;;;;;;;;;;;;;;;;;173067;28;1156;-53
2021/11/20 00:41:13;;;;;;;;;;;;;;;;;;172044;28;867;-53
2021/11/20 00:41:22;;;;;;;;;;;;;;;;;;172544;28;1150;-52
2021/11/20 00:41:28;;;;;;;;;;;;;;;;;;172810;28;1128;-54
2021/11/20 00:41:34;;;;;;;;;;;;;;;;;;172700;28;868;-53
2021/11/20 00:41:39;;;;;;;;;;;;;;;;;;172835;28;1148;-54
2021/11/20 00:41:45;;;;;;;;;;;;;;;;;;173362;28;1121;-51
2021/11/20 00:41:50;;;;;;;;;;;;;;;;;;173374;28;1058;-53
2021/11/20 00:41:55;;;;;;;;;;;;;;;;;;173453;28;805;-52
2021/11/20 00:42:00;;;;;;;;;;;;;;;;;;173182;28;908;-53
2021/11/20 00:42:06;;;;;;;;;;;;;;;;;;173329;28;1149;-52
2021/11/20 00:42:12;;;;;;;;;;;;;;;;;;173425;28;781;-52
2021/11/20 00:42:17;;;;;;;;;;;;;;;;;;173239;28;1200;-53
2021/11/20 00:42:22;;;;;;;;;;;;;;;;;;173468;28;785;-54
2021/11/20 00:42:27;;;;;;;;;;;;;;;;;;173226;28;1081;-56
2021/11/20 00:42:32;;;;;;;;;;;;;;;;;;173349;28;885;-54
2021/11/20 00:42:37;;;;;;;;;;;;;;;;;;173319;28;1101;-55
2021/11/20 00:42:43;;;;;;;;;;;;;;;;;;173490;28;1019;-52
2021/11/20 00:42:48;;;;;;;;;;;;;;;;;;173452;28;1208;-55
2021/11/20 00:42:54;;;;;;;;;;;;;;;;;;173955;28;861;-54
2021/11/20 00:42:59;;;;;;;;;;;;;;;;;;173987;28;911;-53
2021/11/20 00:43:04;;;;;;;;;;;;;;;;;;173431;28;1148;-53
2021/11/20 00:43:09;;;;;;;;;;;;;;;;;;173762;28;884;-53
2021/11/20 00:43:15;;;;;;;;;;;;;;;;;;174078;28;1152;-54
2021/11/20 00:43:20;;;;;;;;;;;;;;;;;;173916;28;754;-52
2021/11/20 00:43:25;;;;;;;;;;;;;;;;;;174001;28;1109;-54
2021/11/20 00:43:30;;;;;;;;;;;;;;;;;;174093;28;888;-53
2021/11/20 00:43:36;;;;;;;;;;;;;;;;;;173947;28;1187;-52
2021/11/20 00:43:42;;;;;;;;;;;;;;;;;;174089;28;809;-53
2021/11/20 00:43:47;;;;;;;;;;;;;;;;;;173981;28;1116;-53
2021/11/20 00:43:53;;;;;;;;;;;;;;;;;;174117;28;1075;-51
2021/11/20 00:43:58;;;;;;;;;;;;;;;;;;173975;28;1338;-52
2021/11/20 00:44:03;;;;;;;;;;;;;;;;;;174073;28;1294;-53
2021/11/20 00:44:08;;;;;;;;;;;;;;;;;;174101;28;813;-53
2021/11/20 00:44:14;;;;;;;;;;;;;;;;;;174374;28;1157;-54
2021/11/20 00:44:19;;;;;;;;;;;;;;;;;;174073;28;775;-50
2021/11/20 00:44:24;;;;;;;;;;;;;;;;;;173691;28;1157;-54
2021/11/20 00:44:30;;;;;;;;;;;;;;;;;;173382;28;1022;-55
2021/11/20 00:44:35;;;;;;;;;;;;;;;;;;173488;28;1231;-52
2021/11/20 00:44:40;;;;;;;;;;;;;;;;;;173950;28;967;-53
2021/11/20 00:44:46;;;;;;;;;;;;;;;;;;174077;28;789;-53
2021/11/20 00:44:51;;;;;;;;;;;;;;;;;;173327;28;990;-54
2021/11/20 00:44:56;;;;;;;;;;;;;;;;;;173456;28;1027;-52
2021/11/20 00:45:01;;;;;;;;;;;;;;;;;;173706;28;1169;-52
2021/11/20 00:45:06;;;;;;;;;;;;;;;;;;173279;28;1027;-54
2021/11/20 00:45:12;;;;;;;;;;;;;;;;;;173624;28;1172;-55
2021/11/20 00:45:17;;;;;;;;;;;;;;;;;;173150;28;1575;-54
2021/11/20 00:45:22;;;;;;;;;;;;;;;;;;173149;28;1043;-53
2021/11/20 00:45:28;;;;;;;;;;;;;;;;;;173327;28;1898;-51
2021/11/20 00:45:33;;;;;;;;;;;;;;;;;;172605;28;766;-53
2021/11/20 00:45:38;;;;;;;;;;;;;;;;;;171919;28;775;-52
2021/11/20 00:45:43;;;;;;;;;;;;;;;;;;171178;28;1522;-55
2021/11/20 00:45:48;;;;;;;;;;;;;;;;;;172454;28;967;-55
2021/11/20 00:45:54;;;;;;;;;;;;;;;;;;172755;28;826;-54
2021/11/20 00:45:59;;;;;;;;;;;;;;;;;;172929;28;1149;-52
2021/11/20 00:46:04;;;;;;;;;;;;;;;;;;173444;28;793;-54
2021/11/20 00:46:09;;;;;;;;;;;;;;;;;;173209;28;1097;-53
2021/11/20 00:46:15;;;;;;;;;;;;;;;;;;172743;28;1540;-52